Time;durP1;ratioP1;P1;durP2;ratioP2;P2;SDS_P1;SDS_P2;PMS_P1;PMS_P2;Temp;Humidity;BMP_temperature;BMP_pressure;BME280_temperature;BME280_humidity;BME280_pressure;Samples;Min_cycle;Max_cycle;Signal;HPM_P1;HPM_P2
2024/04/16 00:01:43;;;;;;;6.07;2.65;;;4.90;83.90;;;;;;4688316;30;20056;-83
2024/04/16 00:04:09;;;;;;;2.58;1.67;;;5.10;84.00;;;;;;4692974;30;20049;-84
2024/04/16 00:06:35;;;;;;;5.95;2.33;;;5.00;84.00;;;;;;4721895;30;20451;-85
2024/04/16 00:09:01;;;;;;;5.43;2.10;;;5.00;84.00;;;;;;4721906;30;20053;-83
2024/04/16 00:11:26;;;;;;;4.95;1.90;;;5.00;84.00;;;;;;4721740;30;20060;-83
2024/04/16 00:13:52;;;;;;;4.47;1.95;;;5.00;84.00;;;;;;4707246;30;20618;-82
2024/04/16 00:16:17;;;;;;;6.13;2.20;;;5.00;84.10;;;;;;4722021;30;20060;-83
2024/04/16 00:18:44;;;;;;;4.28;2.10;;;5.00;84.10;;;;;;4721763;30;20057;-83
2024/04/16 00:21:10;;;;;;;3.40;2.13;;;5.00;84.20;;;;;;4721903;30;20095;-81
2024/04/16 00:23:36;;;;;;;3.72;2.10;;;5.10;84.30;;;;;;4734635;30;20084;-81
2024/04/16 00:26:01;;;;;;;4.97;2.03;;;5.10;84.40;;;;;;4721867;30;20064;-83
2024/04/16 00:28:28;;;;;;;3.83;2.17;;;5.00;84.40;;;;;;4721763;30;20061;-83
2024/04/16 00:30:54;;;;;;;4.80;2.30;;;5.30;84.50;;;;;;4721352;30;20060;-84
2024/04/16 00:33:20;;;;;;;4.63;1.90;;;5.10;84.50;;;;;;4706889;30;20060;-84
2024/04/16 00:35:45;;;;;;;4.18;2.33;;;5.00;84.50;;;;;;4721031;30;20061;-82
2024/04/16 00:38:11;;;;;;;6.07;2.22;;;5.10;84.60;;;;;;4732463;30;20140;-83
2024/04/16 00:40:37;;;;;;;5.63;2.60;;;5.00;84.60;;;;;;4727553;30;20067;-82
2024/04/16 00:43:19;;;;;;;3.53;2.08;;;5.00;84.70;;;;;;4704240;30;20049;-83
2024/04/16 00:45:58;;;;;;;3.95;2.30;;;5.10;84.80;;;;;;4712776;30;20102;-86
2024/04/16 00:48:25;;;;;;;5.80;2.30;;;5.10;84.90;;;;;;4719657;30;20114;-85
2024/04/16 00:50:51;;;;;;;4.63;2.17;;;5.10;84.90;;;;;;4726244;30;20520;-81
2024/04/16 00:53:18;;;;;;;6.30;2.55;;;5.20;85.00;;;;;;4738349;30;20052;-82
2024/04/16 00:55:45;;;;;;;5.30;2.78;;;5.20;85.00;;;;;;4741690;30;20056;-85
2024/04/16 00:58:15;;;;;;;5.80;2.50;;;5.20;85.10;;;;;;4752497;30;20393;-81
2024/04/16 01:00:41;;;;;;;9.00;3.38;;;5.10;85.10;;;;;;4739586;30;20059;-82
2024/04/16 01:03:06;;;;;;;7.80;2.92;;;5.10;85.10;;;;;;4723072;30;20052;-82
2024/04/16 01:05:32;;;;;;;9.70;2.97;;;5.10;85.20;;;;;;4740267;30;20461;-84
2024/04/16 01:07:59;;;;;;;8.80;2.90;;;5.40;85.30;;;;;;4737318;30;20500;-87
2024/04/16 01:10:25;;;;;;;6.97;2.70;;;5.20;85.30;;;;;;4750648;30;20075;-84
2024/04/16 01:12:50;;;;;;;5.78;2.50;;;5.10;85.20;;;;;;4751056;30;20060;-87
2024/04/16 01:15:16;;;;;;;5.90;2.78;;;5.10;85.20;;;;;;4751498;30;20069;-88
2024/04/16 01:17:42;;;;;;;6.68;2.38;;;5.10;85.20;;;;;;4751976;30;20130;-91
2024/04/16 01:20:09;;;;;;;8.57;2.85;;;5.00;85.20;;;;;;4751014;30;20114;-86
2024/04/16 01:22:35;;;;;;;5.43;2.45;;;5.00;85.20;;;;;;4751621;30;20386;-84
2024/04/16 01:25:01;;;;;;;3.40;2.28;;;4.90;85.20;;;;;;4739557;30;20176;-88
2024/04/16 01:27:26;;;;;;;4.88;2.45;;;4.90;85.20;;;;;;4736306;30;20131;-86
2024/04/16 01:29:52;;;;;;;4.47;2.28;;;4.90;85.20;;;;;;4751351;30;20095;-86
2024/04/16 01:32:18;;;;;;;3.42;1.92;;;4.80;85.10;;;;;;4750939;30;20143;-85
2024/04/16 01:34:44;;;;;;;6.05;2.30;;;4.70;85.10;;;;;;4751238;30;20094;-85
2024/04/16 01:37:09;;;;;;;3.25;2.10;;;4.70;85.00;;;;;;4750256;30;20084;-85
2024/04/16 01:39:35;;;;;;;8.25;2.15;;;4.60;85.00;;;;;;4721742;30;20060;-84
2024/04/16 01:42:01;;;;;;;4.45;1.92;;;4.70;85.00;;;;;;4742039;30;20087;-87
2024/04/16 01:44:26;;;;;;;3.40;2.25;;;4.60;84.90;;;;;;4733211;30;20121;-88
2024/04/16 01:46:52;;;;;;;3.35;1.98;;;5.10;85.10;;;;;;4748316;30;20060;-89
2024/04/16 01:49:19;;;;;;;3.60;1.90;;;4.50;84.80;;;;;;4750089;30;20056;-86
2024/04/16 01:51:44;;;;;;;3.17;2.30;;;4.50;84.80;;;;;;4750399;30;20471;-89
2024/04/16 01:54:10;;;;;;;5.82;2.13;;;4.50;84.80;;;;;;4748103;30;20072;-84
2024/04/16 01:56:36;;;;;;;2.10;1.90;;;4.80;84.90;;;;;;4740890;30;20135;-88
2024/04/16 01:59:02;;;;;;;3.75;2.00;;;4.40;84.70;;;;;;4749833;30;20048;-88
2024/04/16 02:01:27;;;;;;;5.68;2.10;;;4.40;84.70;;;;;;4749504;30;20059;-89
2024/04/16 02:03:53;;;;;;;2.95;2.10;;;4.40;84.80;;;;;;4749244;30;20052;-87
2024/04/16 02:06:19;;;;;;;5.45;2.60;;;4.50;84.80;;;;;;4750032;30;20056;-88
2024/04/16 02:08:44;;;;;;;5.50;2.83;;;4.50;84.90;;;;;;4742557;30;20075;-89
2024/04/16 02:11:11;;;;;;;5.22;2.58;;;4.60;84.90;;;;;;4749407;30;20067;-87
2024/04/16 02:13:36;;;;;;;6.88;2.80;;;4.60;85.00;;;;;;4749251;30;20092;-86
2024/04/16 02:16:02;;;;;;;5.05;2.15;;;4.60;85.00;;;;;;4749498;30;20083;-86
2024/04/16 02:18:28;;;;;;;4.82;2.35;;;4.70;85.00;;;;;;4749187;30;20064;-88
2024/04/16 02:20:53;;;;;;;4.03;2.05;;;4.70;85.00;;;;;;4765034;30;20067;-87
2024/04/16 02:23:19;;;;;;;5.75;2.30;;;4.70;85.00;;;;;;4737655;30;20066;-89
2024/04/16 02:25:49;;;;;;;5.57;2.30;;;4.70;85.00;;;;;;4726496;30;20052;-87
2024/04/16 02:28:15;;;;;;;4.75;2.50;;;4.70;85.00;;;;;;4733991;30;20052;-87
2024/04/16 02:30:41;;;;;;;4.45;2.40;;;4.70;85.00;;;;;;4764353;30;20052;-89
2024/04/16 02:33:13;;;;;;;7.65;2.53;;;4.70;84.90;;;;;;4734825;30;20052;-87
2024/04/16 02:35:39;;;;;;;6.88;3.15;;;4.60;84.90;;;;;;4740249;30;20060;-89
2024/04/16 02:38:04;;;;;;;6.85;2.58;;;4.60;84.90;;;;;;4747661;30;20066;-88
2024/04/16 02:40:30;;;;;;;4.28;2.47;;;4.80;84.90;;;;;;4748608;30;20457;-87
2024/04/16 02:42:56;;;;;;;6.18;2.50;;;4.90;84.90;;;;;;4749110;30;20435;-86
2024/04/16 02:45:22;;;;;;;5.22;2.70;;;4.60;84.80;;;;;;4734332;30;20091;-88
2024/04/16 02:47:48;;;;;;;5.32;2.97;;;4.50;84.80;;;;;;4746225;30;20501;-89
2024/04/16 02:50:14;;;;;;;9.13;3.08;;;4.50;84.80;;;;;;4728316;30;20052;-91
2024/04/16 02:52:39;;;;;;;8.52;3.40;;;4.50;84.80;;;;;;4734357;30;20138;-89
2024/04/16 02:55:07;;;;;;;8.88;3.78;;;4.50;84.80;;;;;;4748910;30;20572;-89
2024/04/16 02:57:34;;;;;;;7.85;3.40;;;4.50;84.80;;;;;;4749126;30;20092;-85
2024/04/16 03:00:01;;;;;;;8.85;3.58;;;4.50;84.80;;;;;;4764241;30;20544;-88
2024/04/16 03:02:27;;;;;;;11.20;3.30;;;4.50;84.90;;;;;;4743543;30;20063;-86
2024/04/16 03:04:52;;;;;;;7.15;3.92;;;4.50;84.90;;;;;;4749399;30;20143;-88
2024/04/16 03:07:18;;;;;;;9.80;4.03;;;4.60;84.90;;;;;;4749712;30;20131;-87
2024/04/16 03:09:43;;;;;;;9.95;3.50;;;4.60;84.90;;;;;;4725281;30;20559;-87
2024/04/16 03:12:09;;;;;;;10.82;3.88;;;4.50;84.90;;;;;;4742598;30;20596;-88
2024/04/16 03:14:35;;;;;;;10.48;3.58;;;4.60;85.00;;;;;;4739636;30;20060;-86
2024/04/16 03:17:00;;;;;;;10.38;3.60;;;4.60;85.00;;;;;;4737450;30;20417;-87
2024/04/16 03:19:27;;;;;;;11.27;3.88;;;4.70;85.10;;;;;;4725483;30;20497;-87
2024/04/16 03:21:53;;;;;;;10.32;3.63;;;4.70;85.10;;;;;;4744291;30;20421;-85
2024/04/16 03:24:18;;;;;;;12.73;4.30;;;4.70;85.20;;;;;;4740864;30;20067;-85
2024/04/16 03:26:44;;;;;;;10.05;4.05;;;4.80;85.20;;;;;;4746211;30;20450;-88
2024/04/16 03:29:09;;;;;;;13.80;4.00;;;4.90;85.30;;;;;;4717247;30;20064;-87
2024/04/16 03:31:35;;;;;;;10.88;4.25;;;4.80;85.30;;;;;;4724976;30;20179;-84
2024/04/16 03:34:01;;;;;;;13.23;3.85;;;4.80;85.20;;;;;;4750318;30;20098;-90
2024/04/16 03:36:26;;;;;;;7.78;3.30;;;4.80;85.20;;;;;;4741447;30;20114;-87
2024/04/16 03:38:52;;;;;;;9.23;3.97;;;4.80;85.20;;;;;;4751672;30;20068;-88
2024/04/16 03:41:18;;;;;;;9.95;3.60;;;4.70;85.10;;;;;;4758721;30;20056;-87
2024/04/16 03:43:43;;;;;;;9.63;3.88;;;4.70;85.10;;;;;;4765187;30;20046;-84
2024/04/16 03:46:09;;;;;;;11.13;3.78;;;4.70;85.10;;;;;;4754554;30;20051;-88
2024/04/16 03:48:34;;;;;;;10.68;4.30;;;4.70;85.10;;;;;;4736426;30;20067;-87
2024/04/16 03:51:00;;;;;;;7.25;3.67;;;4.70;85.10;;;;;;4751311;30;20056;-88
2024/04/16 03:53:26;;;;;;;12.93;3.72;;;4.70;85.10;;;;;;4735225;30;20064;-92
2024/04/16 03:55:51;;;;;;;11.82;3.60;;;4.70;85.10;;;;;;4720842;30;20056;-92
2024/04/16 03:58:17;;;;;;;8.48;3.53;;;4.80;85.20;;;;;;4749641;30;20079;-85
2024/04/16 04:01:03;;;;;;;10.98;3.88;;;4.80;85.20;;;;;;4734984;30;20056;-90
2024/04/16 04:03:32;;;;;;;9.13;4.15;;;4.90;85.20;;;;;;4736453;30;20064;-92
2024/04/16 04:05:58;;;;;;;8.63;4.18;;;4.80;85.20;;;;;;4740671;30;20091;-89
2024/04/16 04:08:24;;;;;;;8.30;4.88;;;4.80;85.10;;;;;;4718400;30;20049;-90
2024/04/16 04:10:50;;;;;;;7.03;4.38;;;4.90;85.10;;;;;;4750592;30;20389;-88
2024/04/16 04:13:15;;;;;;;10.98;4.40;;;4.80;85.10;;;;;;4749222;30;20048;-90
2024/04/16 04:15:41;;;;;;;5.47;3.67;;;4.80;85.10;;;;;;4750034;30;20079;-91
2024/04/16 04:18:07;;;;;;;7.85;4.60;;;4.80;85.10;;;;;;4749167;30;20060;-89
2024/04/16 04:20:33;;;;;;;7.72;5.68;;;4.70;85.00;;;;;;4749896;30;20139;-88
2024/04/16 04:22:58;;;;;;;8.98;5.75;;;4.70;85.00;;;;;;4749390;30;20126;-89
2024/04/16 04:25:24;;;;;;;9.90;5.18;;;4.80;85.10;;;;;;4749269;30;20053;-91
2024/04/16 04:27:51;;;;;;;9.27;4.25;;;4.80;85.00;;;;;;4749580;30;20135;-90
2024/04/16 04:30:17;;;;;;;8.25;4.30;;;4.80;85.00;;;;;;4749683;30;20412;-91
2024/04/16 04:32:48;;;;;;;7.43;4.43;;;4.80;85.00;;;;;;4750105;30;20060;-91
2024/04/16 04:35:14;;;;;;;10.38;4.68;;;4.80;85.00;;;;;;4749804;30;20524;-87
2024/04/16 04:37:39;;;;;;;8.13;4.10;;;4.90;85.00;;;;;;4752593;30;20052;-91
2024/04/16 04:40:05;;;;;;;9.65;3.80;;;4.90;85.00;;;;;;4752225;30;20081;-91
2024/04/16 04:42:31;;;;;;;6.78;3.80;;;4.90;84.90;;;;;;4752038;30;20087;-85
2024/04/16 04:44:57;;;;;;;10.18;5.72;;;5.00;84.90;;;;;;4752163;30;20092;-81
2024/04/16 04:47:23;;;;;;;11.80;3.90;;;5.00;84.90;;;;;;4751267;30;20424;-83
2024/04/16 04:49:48;;;;;;;12.00;4.00;;;4.90;84.90;;;;;;4741915;30;20056;-86
2024/04/16 04:52:14;;;;;;;7.03;3.58;;;4.90;84.90;;;;;;4750629;30;20834;-86
2024/04/16 04:54:40;;;;;;;8.52;4.80;;;4.80;84.90;;;;;;4750790;30;20067;-82
2024/04/16 04:57:06;;;;;;;9.00;3.70;;;4.80;84.90;;;;;;4742862;30;20532;-86
2024/04/16 04:59:31;;;;;;;7.25;4.50;;;4.80;85.00;;;;;;4732780;30;20139;-84
2024/04/16 05:01:58;;;;;;;9.50;4.10;;;4.90;85.10;;;;;;4750988;30;20048;-81
2024/04/16 05:04:24;;;;;;;8.85;4.65;;;4.90;85.10;;;;;;4749572;30;20416;-82
2024/04/16 05:06:50;;;;;;;10.68;4.72;;;4.80;85.10;;;;;;4733784;30;20059;-86
2024/04/16 05:09:15;;;;;;;7.90;4.30;;;4.90;85.20;;;;;;4738055;30;20447;-84
2024/04/16 05:11:41;;;;;;;11.20;4.63;;;4.80;85.20;;;;;;4737873;30;20056;-85
2024/04/16 05:14:09;;;;;;;8.27;4.55;;;4.80;85.20;;;;;;4737193;30;20402;-84
2024/04/16 05:16:35;;;;;;;8.93;4.97;;;4.90;85.20;;;;;;4737929;30;20332;-87
2024/04/16 05:19:03;;;;;;;5.85;3.83;;;4.90;85.20;;;;;;4737662;30;20052;-86
2024/04/16 05:21:29;;;;;;;8.18;3.50;;;5.00;85.30;;;;;;4737728;30;20067;-86
2024/04/16 05:23:54;;;;;;;6.15;3.38;;;5.00;85.30;;;;;;4737304;30;20064;-84
2024/04/16 05:26:22;;;;;;;4.95;3.30;;;4.90;85.20;;;;;;4738385;30;20401;-83
2024/04/16 05:28:48;;;;;;;5.13;3.38;;;4.90;85.20;;;;;;4737682;30;20834;-85
2024/04/16 05:31:14;;;;;;;6.00;3.45;;;5.00;85.30;;;;;;4738695;30;20060;-87
2024/04/16 05:33:39;;;;;;;4.32;3.05;;;5.00;85.20;;;;;;4722176;30;20059;-84
2024/04/16 05:36:05;;;;;;;5.85;3.40;;;5.00;85.20;;;;;;4739490;30;20127;-85
2024/04/16 05:38:31;;;;;;;8.82;3.67;;;5.00;85.20;;;;;;4738541;30;20056;-86
2024/04/16 05:40:57;;;;;;;6.25;3.40;;;5.00;85.20;;;;;;4737776;30;20512;-85
2024/04/16 05:43:22;;;;;;;7.68;3.55;;;5.00;85.10;;;;;;4739559;30;20044;-87
2024/04/16 05:45:48;;;;;;;7.78;3.10;;;5.00;85.10;;;;;;4739540;30;20114;-85
2024/04/16 05:48:13;;;;;;;8.00;3.47;;;5.00;85.10;;;;;;4740959;30;20056;-83
2024/04/16 05:50:39;;;;;;;6.15;3.30;;;5.00;85.10;;;;;;4724171;30;20123;-86
2024/04/16 05:53:05;;;;;;;8.80;3.88;;;4.90;85.10;;;;;;4734830;30;20060;-82
2024/04/16 05:55:30;;;;;;;6.25;3.53;;;4.80;85.00;;;;;;4722653;30;20064;-83
2024/04/16 05:57:56;;;;;;;5.93;2.80;;;4.80;85.20;;;;;;4734205;30;20060;-82
2024/04/16 06:00:22;;;;;;;4.85;2.97;;;4.70;85.10;;;;;;4734605;30;20062;-84
2024/04/16 06:02:47;;;;;;;3.22;2.50;;;4.70;85.10;;;;;;4735150;30;20129;-84
2024/04/16 06:05:13;;;;;;;6.97;3.25;;;4.60;85.10;;;;;;4734377;30;20092;-79
2024/04/16 06:07:39;;;;;;;5.72;3.15;;;4.60;85.00;;;;;;4734074;30;20047;-83
2024/04/16 06:10:06;;;;;;;5.68;3.20;;;4.60;85.10;;;;;;4720785;30;20064;-80
2024/04/16 06:12:31;;;;;;;4.50;3.08;;;4.50;85.10;;;;;;4729036;30;20197;-80
2024/04/16 06:14:59;;;;;;;2.60;2.40;;;4.50;85.10;;;;;;4730840;30;20751;-86
2024/04/16 06:17:24;;;;;;;4.80;3.30;;;4.40;85.00;;;;;;4731710;30;20052;-77
2024/04/16 06:19:50;;;;;;;5.40;3.08;;;4.40;85.00;;;;;;4739073;30;20542;-78
2024/04/16 06:22:16;;;;;;;6.45;3.60;;;4.30;85.00;;;;;;4739430;30;20065;-82
2024/04/16 06:24:42;;;;;;;4.97;3.38;;;4.30;85.10;;;;;;4743318;30;20848;-78
2024/04/16 06:27:08;;;;;;;5.53;3.45;;;4.30;85.20;;;;;;4740698;30;20576;-81
2024/04/16 06:29:37;;;;;;;8.85;4.30;;;4.30;85.20;;;;;;4744453;30;20056;-80
2024/04/16 06:32:04;;;;;;;6.20;3.72;;;4.40;85.30;;;;;;4729696;30;20064;-80
2024/04/16 06:34:30;;;;;;;6.20;3.45;;;4.90;85.50;;;;;;4734700;30;20056;-82
2024/04/16 06:36:56;;;;;;;4.43;3.67;;;4.40;85.50;;;;;;4732832;30;20121;-85
2024/04/16 06:39:21;;;;;;;6.55;3.35;;;4.40;85.40;;;;;;4747910;30;20080;-86
2024/04/16 06:41:47;;;;;;;6.47;4.00;;;4.50;85.50;;;;;;4727667;30;20584;-86
2024/04/16 06:44:12;;;;;;;5.65;3.80;;;4.50;85.50;;;;;;4744605;30;20064;-88
2024/04/16 06:46:38;;;;;;;7.60;4.70;;;4.50;85.60;;;;;;4744334;30;20063;-87
2024/04/16 06:49:04;;;;;;;6.80;4.53;;;4.60;85.70;;;;;;4746065;30;20048;-88
2024/04/16 06:51:30;;;;;;;6.45;4.43;;;4.60;85.70;;;;;;4744054;30;20056;-86
2024/04/16 06:53:55;;;;;;;5.75;4.40;;;4.60;85.70;;;;;;4739184;30;20103;-85
2024/04/16 06:56:21;;;;;;;6.03;4.25;;;4.60;85.70;;;;;;4733610;30;20048;-87
2024/04/16 06:58:47;;;;;;;7.68;4.80;;;4.60;85.80;;;;;;4738519;30;20473;-88
2024/04/16 07:01:12;;;;;;;6.63;4.30;;;4.80;85.80;;;;;;4748265;30;20428;-86
2024/04/16 07:03:38;;;;;;;5.82;4.05;;;4.60;85.80;;;;;;4734054;30;20056;-83
2024/04/16 07:06:05;;;;;;;5.05;3.30;;;4.80;85.80;;;;;;4741810;30;20071;-86
2024/04/16 07:08:31;;;;;;;6.13;3.58;;;4.60;85.70;;;;;;4738320;30;20118;-86
2024/04/16 07:10:56;;;;;;;4.93;2.95;;;4.50;85.60;;;;;;4745571;30;20060;-85
2024/04/16 07:13:22;;;;;;;5.00;2.63;;;4.50;85.60;;;;;;4748624;30;20064;-85
2024/04/16 07:15:48;;;;;;;2.95;2.65;;;4.50;85.60;;;;;;4734126;30;20068;-86
2024/04/16 07:18:13;;;;;;;4.10;2.85;;;4.60;85.70;;;;;;4734594;30;20070;-86
2024/04/16 07:20:47;;;;;;;4.63;3.08;;;4.50;85.70;;;;;;4746717;30;20055;-85
2024/04/16 07:23:13;;;;;;;3.53;2.85;;;4.50;85.70;;;;;;4748700;30;20056;-83
2024/04/16 07:25:43;;;;;;;5.28;3.75;;;4.50;85.80;;;;;;4745114;30;20105;-84
2024/04/16 07:28:09;;;;;;;5.43;4.10;;;4.60;86.00;;;;;;4750504;30;20056;-85
2024/04/16 07:30:35;;;;;;;6.07;3.67;;;5.40;86.20;;;;;;4746396;30;20063;-85
2024/04/16 07:33:01;;;;;;;6.47;3.90;;;4.70;86.00;;;;;;4737178;30;20052;-85
2024/04/16 07:35:27;;;;;;;6.28;4.57;;;4.80;86.00;;;;;;4756717;30;20067;-85
2024/04/16 07:37:53;;;;;;;6.75;4.93;;;5.10;86.20;;;;;;4731943;30;20436;-84
2024/04/16 07:40:18;;;;;;;8.07;5.00;;;4.90;86.20;;;;;;4743332;30;20060;-84
2024/04/16 07:42:44;;;;;;;6.68;4.78;;;4.90;86.20;;;;;;4743121;30;20194;-84
2024/04/16 07:45:10;;;;;;;9.48;5.07;;;5.00;86.20;;;;;;4742175;30;20048;-84
2024/04/16 07:47:35;;;;;;;7.90;4.70;;;5.00;86.20;;;;;;4741202;30;20193;-84
2024/04/16 07:50:01;;;;;;;7.57;4.32;;;5.10;86.30;;;;;;4741909;30;20091;-84
2024/04/16 07:52:27;;;;;;;8.52;4.50;;;5.00;86.30;;;;;;4747357;30;20068;-81
2024/04/16 07:54:52;;;;;;;7.93;4.60;;;5.50;86.40;;;;;;4736520;30;20056;-81
2024/04/16 07:57:18;;;;;;;6.28;4.72;;;5.20;86.30;;;;;;4739717;30;20505;-81
2024/04/16 07:59:43;;;;;;;8.90;4.53;;;5.00;86.30;;;;;;4715638;30;20086;-82
2024/04/16 08:02:09;;;;;;;8.35;5.05;;;5.10;86.30;;;;;;4743928;30;20056;-80
2024/04/16 08:04:35;;;;;;;7.35;4.80;;;5.20;86.40;;;;;;4723642;30;20495;-80
2024/04/16 08:07:00;;;;;;;8.30;5.10;;;5.40;86.50;;;;;;4740378;30;20619;-81
2024/04/16 08:09:26;;;;;;;11.52;5.30;;;5.40;86.50;;;;;;4738713;30;20073;-80
2024/04/16 08:11:52;;;;;;;6.90;5.00;;;5.50;86.50;;;;;;4726721;30;20052;-80
2024/04/16 08:14:20;;;;;;;7.03;4.75;;;5.60;86.60;;;;;;4742860;30;20070;-81
2024/04/16 08:16:46;;;;;;;8.43;5.10;;;5.50;86.60;;;;;;4742896;30;20114;-81
2024/04/16 08:19:11;;;;;;;7.70;5.00;;;5.60;86.60;;;;;;4745746;30;20476;-81
2024/04/16 08:21:37;;;;;;;6.63;4.93;;;5.70;86.70;;;;;;4726968;30;20401;-81
2024/04/16 08:24:03;;;;;;;7.97;5.47;;;5.80;86.70;;;;;;4745303;30;20139;-81
2024/04/16 08:26:29;;;;;;;6.30;4.90;;;5.90;86.80;;;;;;4742266;30;20291;-81
2024/04/16 08:28:55;;;;;;;7.40;5.15;;;6.00;86.80;;;;;;4729192;30;20082;-82
2024/04/16 08:31:20;;;;;;;6.88;4.70;;;6.10;86.80;;;;;;4750077;30;20139;-81
2024/04/16 08:33:46;;;;;;;5.88;4.15;;;5.90;86.80;;;;;;4733318;30;20537;-81
2024/04/16 08:36:11;;;;;;;6.50;3.80;;;5.90;86.80;;;;;;4747677;30;20087;-82
2024/04/16 08:38:37;;;;;;;9.18;4.50;;;6.20;86.90;;;;;;4747098;30;20099;-81
2024/04/16 08:41:04;;;;;;;5.72;3.92;;;6.00;86.80;;;;;;4743425;30;20053;-82
2024/04/16 08:43:33;;;;;;;6.05;4.45;;;6.10;86.90;;;;;;4747634;30;20049;-82
2024/04/16 08:46:01;;;;;;;8.07;4.63;;;6.40;87.00;;;;;;4745391;30;20063;-82
2024/04/16 08:48:29;;;;;;;5.68;4.88;;;6.40;87.00;;;;;;4746890;30;20402;-82
2024/04/16 08:50:57;;;;;;;6.68;5.03;;;6.50;87.10;;;;;;4748246;30;21099;-82
2024/04/16 08:53:24;;;;;;;6.93;4.70;;;6.50;87.10;;;;;;4732133;30;20095;-81
2024/04/16 08:55:50;;;;;;;5.90;4.40;;;6.60;87.10;;;;;;4744513;30;20122;-80
2024/04/16 08:58:16;;;;;;;6.05;4.35;;;6.80;87.20;;;;;;4716965;30;20088;-81
2024/04/16 09:00:43;;;;;;;5.13;4.53;;;6.60;87.10;;;;;;4744950;30;20239;-83
2024/04/16 09:03:09;;;;;;;5.65;4.03;;;7.00;87.20;;;;;;4744467;30;20057;-82
2024/04/16 09:05:35;;;;;;;5.95;4.70;;;6.60;87.10;;;;;;4736838;30;20057;-82
2024/04/16 09:08:01;;;;;;;7.95;5.57;;;6.70;87.10;;;;;;4733044;30;20063;-83
2024/04/16 09:10:26;;;;;;;4.80;3.88;;;6.80;87.20;;;;;;4733209;30;20064;-83
2024/04/16 09:12:53;;;;;;;4.95;3.50;;;6.90;87.20;;;;;;4744591;30;20502;-83
2024/04/16 09:15:19;;;;;;;3.72;3.20;;;6.90;87.30;;;;;;4732699;30;20498;-83
2024/04/16 09:17:53;;;;;;;3.58;3.20;;;6.90;87.20;;;;;;4744027;30;20521;-83
2024/04/16 09:20:21;;;;;;;3.50;3.13;;;6.90;87.20;;;;;;4743676;30;20091;-83
2024/04/16 09:22:51;;;;;;;3.80;2.95;;;7.00;87.20;;;;;;4741532;30;20106;-84
2024/04/16 09:25:18;;;;;;;3.85;3.03;;;7.10;87.30;;;;;;4741816;30;21204;-83
2024/04/16 09:27:48;;;;;;;4.53;2.88;;;7.00;87.30;;;;;;4736396;30;20084;-83
2024/04/16 09:30:14;;;;;;;4.22;2.90;;;7.00;87.30;;;;;;4734838;30;20058;-84
2024/04/16 09:32:55;;;;;;;4.03;3.15;;;6.90;87.20;;;;;;4723686;30;20079;-83
2024/04/16 09:35:27;;;;;;;3.38;2.80;;;7.00;87.20;;;;;;4734110;30;20056;-85
2024/04/16 09:38:08;;;;;;;3.20;2.70;;;7.00;87.20;;;;;;4749565;30;20088;-86
2024/04/16 09:40:34;;;;;;;3.22;2.80;;;7.20;87.20;;;;;;4738264;30;20052;-85
2024/04/16 09:43:02;;;;;;;3.92;2.80;;;7.30;87.20;;;;;;4747589;30;20048;-84
2024/04/16 09:45:28;;;;;;;2.90;2.60;;;7.40;87.20;;;;;;4734893;30;20412;-85
2024/04/16 09:47:55;;;;;;;2.95;2.65;;;7.40;87.20;;;;;;4735563;30;20060;-85
2024/04/16 09:50:22;;;;;;;2.95;2.50;;;7.40;87.20;;;;;;4734860;30;20048;-84
2024/04/16 09:52:52;;;;;;;3.30;2.60;;;7.70;87.20;;;;;;4734335;30;20056;-83
2024/04/16 09:55:21;;;;;;;4.55;2.47;;;7.50;87.00;;;;;;4758240;30;20056;-85
2024/04/16 09:57:51;;;;;;;2.95;2.65;;;7.50;87.00;;;;;;4748924;30;20048;-84
2024/04/16 10:00:18;;;;;;;2.67;2.38;;;7.40;86.70;;;;;;4735120;30;20064;-83
2024/04/16 10:02:45;;;;;;;2.28;2.03;;;7.40;86.50;;;;;;4750067;30;20107;-83
2024/04/16 10:05:11;;;;;;;2.58;2.38;;;7.40;86.40;;;;;;4747973;30;20044;-83
2024/04/16 10:07:39;;;;;;;2.60;2.30;;;7.40;86.20;;;;;;4738243;30;20057;-83
2024/04/16 10:10:09;;;;;;;3.08;2.33;;;7.50;86.10;;;;;;4727090;30;20065;-83
2024/04/16 10:12:36;;;;;;;2.47;2.20;;;7.50;86.10;;;;;;4735809;30;20111;-83
2024/04/16 10:15:02;;;;;;;2.55;2.35;;;7.50;85.90;;;;;;4749545;30;20547;-85
2024/04/16 10:17:28;;;;;;;2.63;2.20;;;7.40;85.60;;;;;;4720935;30;20048;-81
2024/04/16 10:19:54;;;;;;;3.83;3.00;;;7.60;85.20;;;;;;4734089;30;20517;-81
2024/04/16 10:22:20;;;;;;;2.65;2.30;;;7.30;84.90;;;;;;4749085;30;20394;-81
2024/04/16 10:24:53;;;;;;;3.10;2.40;;;7.30;84.80;;;;;;4734834;30;20064;-81
2024/04/16 10:27:25;;;;;;;3.63;2.35;;;7.20;84.60;;;;;;4737311;30;20040;-82
2024/04/16 10:30:07;;;;;;;2.95;2.50;;;7.20;84.40;;;;;;4741010;30;20131;-82
2024/04/16 10:32:33;;;;;;;3.08;2.20;;;7.20;84.40;;;;;;4749505;30;20052;-82
2024/04/16 10:35:07;;;;;;;3.88;2.25;;;7.30;84.30;;;;;;4744034;30;20094;-83
2024/04/16 10:37:34;;;;;;;2.40;2.20;;;7.50;84.40;;;;;;4753218;30;20126;-82
2024/04/16 10:40:00;;;;;;;2.65;2.28;;;7.40;84.30;;;;;;4747347;30;20420;-82
2024/04/16 10:42:29;;;;;;;2.47;2.17;;;7.40;84.20;;;;;;4745251;30;20055;-83
2024/04/16 10:44:57;;;;;;;2.55;2.00;;;7.50;84.20;;;;;;4740407;30;20065;-83
2024/04/16 10:47:25;;;;;;;2.58;2.30;;;7.70;84.30;;;;;;4744486;30;20072;-83
2024/04/16 10:49:53;;;;;;;2.47;2.28;;;7.70;84.20;;;;;;4737890;30;20122;-83
2024/04/16 10:52:20;;;;;;;3.63;2.20;;;8.00;84.30;;;;;;4746704;30;20059;-83
2024/04/16 10:54:50;;;;;;;2.83;2.40;;;8.00;84.40;;;;;;4733771;30;20649;-83
2024/04/16 10:57:21;;;;;;;2.20;2.00;;;8.00;84.30;;;;;;4748575;30;20056;-83
2024/04/16 10:59:47;;;;;;;2.50;2.28;;;8.00;84.10;;;;;;4746629;30;20518;-84
2024/04/16 11:03:38;;;;;;;2.38;2.17;;;8.10;83.90;;;;;;5491856;25;20121;-72
2024/04/16 11:06:06;;;;;;;2.65;2.20;;;8.00;83.30;;;;;;5464218;26;20004;-73
2024/04/16 11:08:33;;;;;;;2.55;2.03;;;8.10;83.10;;;;;;5461790;26;19995;-73
2024/04/16 11:10:59;;;;;;;2.35;2.15;;;8.20;82.90;;;;;;5464932;26;20453;-73
2024/04/16 11:13:26;;;;;;;2.58;2.25;;;8.30;82.70;;;;;;5466361;26;19998;-74
2024/04/16 11:15:52;;;;;;;2.08;1.88;;;8.40;82.70;;;;;;5444838;26;20015;-74
2024/04/16 11:18:19;;;;;;;2.60;1.88;;;8.60;82.90;;;;;;5427488;26;20072;-74
2024/04/16 11:20:45;;;;;;;3.30;2.30;;;8.80;82.90;;;;;;5449739;26;20027;-74
2024/04/16 11:23:11;;;;;;;2.28;2.00;;;8.80;82.00;;;;;;5441350;26;19998;-74
2024/04/16 11:25:46;;;;;;;4.15;2.10;;;8.80;81.80;;;;;;5457002;26;20495;-74
2024/04/16 11:28:13;;;;;;;2.30;2.10;;;8.80;81.50;;;;;;5446646;26;20054;-74
2024/04/16 11:30:53;;;;;;;2.90;2.05;;;8.90;81.00;;;;;;5460284;26;20010;-74
2024/04/16 11:33:18;;;;;;;3.05;2.15;;;8.90;80.80;;;;;;5445635;26;20010;-74
2024/04/16 11:35:44;;;;;;;2.78;2.53;;;9.00;80.70;;;;;;5457107;26;20006;-74
2024/04/16 11:38:10;;;;;;;5.80;3.67;;;9.00;80.80;;;;;;5442179;26;20425;-75
2024/04/16 11:40:40;;;;;;;1.90;1.80;;;9.10;80.80;;;;;;5458434;26;20011;-74
2024/04/16 11:43:07;;;;;;;1.90;1.80;;;9.40;80.90;;;;;;5461461;26;19994;-74
2024/04/16 11:45:33;;;;;;;2.25;1.83;;;9.60;80.80;;;;;;5441082;26;20445;-75
2024/04/16 11:47:59;;;;;;;1.70;1.60;;;9.70;80.70;;;;;;5451391;26;19999;-75
2024/04/16 11:50:25;;;;;;;2.17;1.70;;;9.90;80.70;;;;;;5455715;26;20003;-74
2024/04/16 11:52:51;;;;;;;2.45;1.85;;;10.00;80.40;;;;;;5439628;26;20002;-75
2024/04/16 11:55:17;;;;;;;2.10;1.90;;;10.00;80.40;;;;;;5439043;26;20006;-75
2024/04/16 11:57:43;;;;;;;3.92;2.00;;;10.00;80.20;;;;;;5442193;26;20039;-74
2024/04/16 12:00:09;;;;;;;3.10;1.73;;;9.90;79.40;;;;;;5464449;26;20015;-74
2024/04/16 12:02:36;;;;;;;2.53;2.00;;;9.90;79.30;;;;;;5446773;26;20011;-74
2024/04/16 12:05:02;;;;;;;4.25;2.10;;;9.80;79.60;;;;;;5443629;26;20003;-75
2024/04/16 12:07:28;;;;;;;2.35;2.00;;;9.90;79.80;;;;;;5400159;26;20018;-75
2024/04/16 12:09:54;;;;;;;2.22;1.75;;;10.00;79.90;;;;;;5464120;26;20429;-75
2024/04/16 12:12:20;;;;;;;2.47;2.22;;;10.00;79.90;;;;;;5438161;26;20408;-75
2024/04/16 12:14:46;;;;;;;3.35;1.80;;;10.00;80.00;;;;;;5436390;26;20474;-74
2024/04/16 12:17:11;;;;;;;2.10;1.90;;;10.10;79.80;;;;;;5416408;26;19999;-75
2024/04/16 12:19:38;;;;;;;3.53;2.13;;;10.30;80.00;;;;;;5443303;26;20017;-75
2024/04/16 12:22:04;;;;;;;2.90;1.90;;;10.40;80.10;;;;;;5434880;26;20009;-75
2024/04/16 12:24:30;;;;;;;2.08;1.73;;;10.50;80.00;;;;;;5422077;26;20425;-74
2024/04/16 12:26:56;;;;;;;2.53;1.80;;;10.60;80.10;;;;;;5445466;26;20003;-75
2024/04/16 12:29:22;;;;;;;2.60;1.70;;;10.60;79.50;;;;;;5436175;26;20006;-75
2024/04/16 12:31:47;;;;;;;3.38;1.90;;;10.50;79.20;;;;;;5435549;26;20093;-75
2024/04/16 12:34:13;;;;;;;2.78;1.70;;;10.40;79.30;;;;;;5433477;26;20017;-75
2024/04/16 12:36:39;;;;;;;3.15;1.80;;;10.40;79.40;;;;;;5428626;26;20441;-75
2024/04/16 12:39:05;;;;;;;1.70;1.60;;;10.40;79.50;;;;;;5450104;26;20515;-75
2024/04/16 12:41:30;;;;;;;2.75;1.77;;;10.50;79.80;;;;;;5444936;26;19999;-75
2024/04/16 12:43:56;;;;;;;2.45;1.67;;;10.40;79.70;;;;;;5419321;26;19999;-75
2024/04/16 12:46:22;;;;;;;2.88;1.73;;;10.40;79.70;;;;;;5421513;26;20015;-75
2024/04/16 12:48:50;;;;;;;2.38;1.83;;;10.50;79.80;;;;;;5417165;26;20007;-75
2024/04/16 12:51:16;;;;;;;2.33;2.00;;;10.70;79.90;;;;;;5435114;26;19999;-75
2024/04/16 12:53:42;;;;;;;2.47;1.90;;;10.80;79.90;;;;;;5438505;26;20074;-75